createdAt,value
2022-08-28T00:01:08.268Z,21.73
2022-08-28T00:03:54.725Z,19.85
2022-08-28T00:06:34.867Z,13.13
2022-08-28T00:09:21.696Z,117.30
2022-08-28T00:12:08.742Z,34.80
2022-08-28T00:14:49.110Z,27.05
2022-08-28T00:17:35.738Z,31.27
2022-08-28T00:20:25.693Z,24.00
2022-08-28T00:23:05.992Z,21.88
2022-08-28T00:25:52.708Z,26.50
2022-08-28T00:28:33.118Z,26.45
2022-08-28T00:31:19.725Z,24.38
2022-08-28T00:34:03.268Z,20.38
2022-08-28T00:36:49.715Z,20.58
2022-08-28T00:39:29.816Z,26.80
2022-08-28T00:42:16.668Z,23.60
2022-08-28T00:45:04.671Z,24.63
2022-08-28T00:47:45.842Z,31.63
2022-08-28T00:50:36.674Z,20.48
2022-08-28T00:53:27.145Z,22.27
2022-08-28T00:56:24.688Z,26.83
2022-08-28T00:59:15.676Z,20.00
2022-08-28T01:02:04.724Z,24.52
2022-08-28T01:04:45.697Z,28.38
2022-08-28T01:07:32.660Z,27.35
2022-08-28T01:10:18.248Z,29.00
2022-08-28T01:13:05.623Z,21.85
2022-08-28T01:15:47.003Z,20.63
2022-08-28T01:18:34.680Z,22.98
2022-08-28T01:21:27.119Z,21.42
2022-08-28T01:24:22.636Z,22.90
2022-08-28T01:27:09.647Z,24.58
2022-08-28T01:29:50.753Z,24.90
2022-08-28T01:32:42.640Z,22.55
2022-08-28T01:35:26.724Z,22.65
2022-08-28T01:38:17.619Z,21.00
2022-08-28T01:41:00.711Z,22.58
2022-08-28T01:43:48.648Z,22.17
2022-08-28T01:46:36.709Z,23.67
2022-08-28T01:49:17.659Z,21.77
2022-08-28T01:51:57.623Z,23.23
2022-08-28T01:54:37.735Z,23.33
2022-08-28T01:57:25.603Z,25.02
2022-08-28T02:00:12.583Z,23.17
2022-08-28T02:02:55.583Z,25.70
2022-08-28T02:05:45.588Z,24.58
2022-08-28T02:08:25.987Z,18.83
2022-08-28T02:11:12.592Z,26.63
2022-08-28T02:13:54.304Z,17.92
2022-08-28T02:16:43.605Z,20.30
2022-08-28T02:19:24.628Z,20.40
2022-08-28T02:22:14.604Z,22.60
2022-08-28T02:24:55.026Z,15.15
2022-08-28T02:27:41.583Z,25.08
2022-08-28T02:30:22.097Z,25.20
2022-08-28T02:33:08.553Z,18.00
2022-08-28T02:36:02.620Z,29.10
2022-08-28T02:38:56.854Z,17.42
2022-08-28T02:41:44.554Z,17.80
2022-08-28T02:44:24.977Z,13.93
2022-08-28T02:47:11.566Z,25.52
2022-08-28T02:49:58.547Z,28.83
2022-08-28T02:52:45.545Z,37.67
2022-08-28T02:55:26.154Z,37.42
2022-08-28T02:58:13.626Z,47.53
2022-08-28T03:01:01.551Z,52.05
2022-08-28T03:03:48.548Z,59.88
2022-08-28T03:26:42.564Z,26.53
2022-08-28T03:29:23.473Z,36.20
2022-08-28T03:32:10.564Z,31.10
2022-08-28T03:34:50.957Z,30.30
2022-08-28T03:37:38.533Z,32.53
2022-08-28T03:40:19.939Z,38.35
2022-08-28T03:43:06.938Z,33.92
2022-08-28T03:46:09.563Z,35.58
2022-08-28T03:48:50.751Z,37.72
2022-08-28T03:51:40.550Z,37.05
2022-08-28T03:54:27.551Z,35.67
2022-08-28T03:57:07.985Z,43.40
2022-08-28T03:59:54.555Z,35.40
2022-08-28T04:02:34.990Z,33.85
2022-08-28T04:05:24.995Z,39.20
2022-08-28T04:08:11.761Z,41.85
2022-08-28T04:10:59.549Z,49.47
2022-08-28T04:13:48.554Z,41.17
2022-08-28T04:16:35.569Z,31.85
2022-08-28T04:19:15.923Z,37.28
2022-08-28T04:22:02.509Z,38.50
2022-08-28T04:24:49.533Z,36.83
2022-08-28T04:27:36.526Z,38.55
2022-08-28T04:30:24.513Z,43.88
2022-08-28T04:33:06.209Z,37.67
2022-08-28T04:35:53.529Z,28.55
2022-08-28T04:38:33.635Z,44.03
2022-08-28T04:41:22.527Z,38.80
2022-08-28T04:44:03.588Z,38.47
2022-08-28T04:46:50.498Z,57.42
2022-08-28T04:49:30.620Z,71.85
2022-08-28T04:52:18.472Z,88.13
2022-08-28T04:54:58.605Z,107.00
2022-08-28T04:57:45.496Z,159.77
2022-08-28T05:00:25.600Z,190.45
2022-08-28T05:03:12.462Z,174.07
2022-08-28T05:05:55.620Z,162.05
2022-08-28T05:08:42.470Z,151.43
2022-08-28T05:11:33.631Z,152.07
2022-08-28T05:14:22.506Z,144.57
2022-08-28T05:17:02.574Z,122.45
2022-08-28T05:19:50.456Z,127.75
2022-08-28T05:22:37.508Z,109.18
2022-08-28T05:25:31.465Z,95.57
2022-08-28T05:28:12.877Z,107.43
2022-08-28T05:30:59.454Z,110.10
2022-08-28T05:33:46.440Z,91.72
2022-08-28T05:36:32.579Z,92.18
2022-08-28T05:39:20.477Z,105.25
2022-08-28T05:42:00.570Z,84.20
2022-08-28T05:44:47.456Z,66.75
2022-08-28T05:47:34.615Z,71.30
2022-08-28T05:50:21.436Z,65.68
2022-08-28T05:53:01.591Z,69.43
2022-08-28T05:55:51.767Z,69.22
2022-08-28T05:58:39.422Z,61.13
2022-08-28T06:01:30.465Z,58.63
2022-08-28T06:04:40.471Z,69.60
2022-08-28T06:07:27.502Z,69.20
2022-08-28T06:10:07.466Z,54.65
2022-08-28T06:12:50.804Z,53.17
2022-08-28T06:15:37.388Z,62.15
2022-08-28T06:18:17.911Z,44.90
2022-08-28T06:21:04.383Z,46.45
2022-08-28T06:23:51.407Z,47.63
2022-08-28T06:26:45.403Z,48.15
2022-08-28T06:32:15.463Z,44.35
2022-08-28T06:34:55.761Z,37.45
2022-08-28T06:37:42.410Z,39.55
2022-08-28T06:40:29.414Z,37.30
2022-08-28T06:43:16.388Z,46.35
2022-08-28T06:45:58.090Z,47.30
2022-08-28T06:48:45.405Z,38.78
2022-08-28T06:51:25.787Z,38.90
2022-08-28T06:54:12.384Z,38.17
2022-08-28T06:56:52.980Z,38.72
2022-08-28T06:59:39.379Z,28.63
2022-08-28T07:02:19.877Z,36.58
2022-08-28T07:05:07.383Z,33.70
2022-08-28T07:07:54.345Z,39.42
2022-08-28T07:10:37.492Z,45.13
2022-08-28T07:13:24.387Z,38.42
2022-08-28T07:16:04.521Z,59.10
2022-08-28T07:18:52.339Z,49.20
2022-08-28T07:21:40.337Z,51.33
2022-08-28T07:24:21.061Z,36.20
2022-08-28T07:27:09.332Z,36.08
2022-08-28T07:29:56.365Z,37.80
2022-08-28T07:32:36.466Z,33.28
2022-08-28T07:35:25.344Z,36.83
2022-08-28T07:38:12.539Z,33.45
2022-08-28T07:40:54.046Z,26.10
2022-08-28T07:43:59.297Z,30.23
2022-08-28T07:46:47.310Z,31.10
2022-08-28T07:49:27.507Z,28.42
2022-08-28T07:52:16.289Z,25.15
2022-08-28T07:54:56.523Z,32.50
2022-08-28T07:57:43.323Z,25.77
2022-08-28T08:00:23.425Z,31.08
2022-08-28T08:03:10.366Z,26.27
2022-08-28T08:06:09.319Z,24.10
2022-08-28T08:08:56.297Z,22.10
2022-08-28T08:11:43.325Z,28.70
2022-08-28T08:14:23.753Z,23.63
2022-08-28T08:17:10.323Z,21.85
2022-08-28T08:19:50.729Z,19.88
2022-08-28T08:22:37.306Z,23.75
2022-08-28T08:25:17.895Z,27.38
2022-08-28T08:28:04.291Z,26.60
2022-08-28T08:30:51.317Z,23.35
2022-08-28T08:33:32.120Z,23.73
2022-08-28T08:36:21.286Z,25.40
2022-08-28T08:39:09.704Z,19.13
2022-08-28T08:41:55.489Z,32.15
2022-08-28T08:44:48.281Z,24.23
2022-08-28T08:47:54.298Z,25.90
2022-08-28T08:50:38.787Z,27.45
2022-08-28T08:53:37.257Z,27.92
2022-08-28T08:56:23.961Z,26.50
2022-08-28T08:59:26.247Z,28.85
2022-08-28T09:02:19.313Z,35.83
2022-08-28T09:05:18.277Z,25.20
2022-08-28T09:08:12.419Z,22.65
2022-08-28T09:11:01.758Z,26.30
2022-08-28T09:14:01.293Z,17.33
2022-08-28T09:16:51.364Z,24.58
2022-08-28T09:19:31.273Z,25.85
2022-08-28T09:22:12.030Z,25.20
2022-08-28T09:24:59.174Z,33.92
2022-08-28T09:27:47.770Z,23.98
2022-08-28T09:30:44.238Z,30.65
2022-08-28T09:33:41.898Z,25.55
2022-08-28T09:36:40.333Z,24.48
2022-08-28T09:39:39.193Z,22.15
2022-08-28T09:42:54.230Z,15.32
2022-08-28T09:45:34.682Z,21.95
2022-08-28T09:48:34.229Z,22.80
2022-08-28T09:51:29.597Z,24.10
2022-08-28T09:54:25.206Z,25.80
2022-08-28T09:57:05.724Z,22.75
2022-08-28T09:59:52.218Z,20.95
2022-08-28T10:02:50.979Z,27.00
2022-08-28T10:05:57.224Z,29.02
2022-08-28T10:08:53.218Z,24.13
2022-08-28T10:11:57.207Z,31.75
2022-08-28T10:14:49.152Z,23.92
2022-08-28T10:18:00.187Z,22.58
2022-08-28T10:21:10.193Z,22.65
2022-08-28T10:24:00.143Z,19.27
2022-08-28T10:27:28.170Z,23.75
2022-08-28T10:30:14.971Z,18.83
2022-08-28T10:33:44.166Z,32.83
2022-08-28T10:36:37.186Z,23.52
2022-08-28T10:39:39.165Z,20.98
2022-08-28T10:42:36.299Z,19.25
2022-08-28T10:45:31.414Z,16.70
2022-08-28T10:48:27.137Z,24.17
2022-08-28T10:51:19.171Z,22.88
2022-08-28T10:54:45.138Z,21.23
2022-08-28T10:57:59.123Z,17.23
2022-08-28T11:03:37.114Z,26.90
2022-08-28T11:06:31.118Z,21.15
2022-08-28T11:09:34.138Z,24.25
2022-08-28T11:12:25.147Z,20.17
2022-08-28T11:15:05.234Z,20.58
2022-08-28T11:17:52.145Z,23.58
2022-08-28T11:20:36.300Z,31.15
2022-08-28T11:23:29.137Z,26.00
2022-08-28T11:26:21.107Z,25.38
2022-08-28T11:29:03.306Z,22.83
2022-08-28T11:31:53.121Z,19.77
2022-08-28T11:35:00.579Z,25.45
2022-08-28T11:37:48.141Z,24.95
2022-08-28T11:40:58.133Z,18.45
2022-08-28T11:43:40.762Z,17.38
2022-08-28T11:46:30.174Z,19.50
2022-08-28T11:49:39.122Z,16.88
2022-08-28T11:52:41.116Z,18.90
2022-08-28T11:55:50.460Z,21.10
2022-08-28T11:58:46.076Z,14.77
2022-08-28T12:01:35.536Z,19.88
2022-08-28T12:04:26.298Z,23.13
2022-08-28T12:07:19.084Z,19.60
2022-08-28T12:10:06.085Z,22.30
2022-08-28T12:12:46.421Z,15.05
2022-08-28T12:15:42.154Z,19.25
2022-08-28T12:18:51.507Z,23.52
2022-08-28T12:21:42.098Z,20.75
2022-08-28T12:24:31.075Z,19.48
2022-08-28T12:27:21.066Z,23.42
2022-08-28T12:30:09.043Z,19.52
2022-08-28T12:32:56.042Z,22.65
2022-08-28T12:35:36.808Z,27.13
2022-08-28T12:38:34.055Z,21.38
2022-08-28T12:41:17.224Z,24.63
2022-08-28T12:44:16.039Z,21.10
2022-08-28T12:46:57.291Z,23.63
2022-08-28T12:49:49.037Z,16.02
2022-08-28T12:52:36.052Z,22.25
2022-08-28T12:55:16.164Z,17.25
2022-08-28T12:58:03.049Z,22.00
2022-08-28T13:00:50.098Z,19.60
2022-08-28T13:03:30.748Z,27.75
2022-08-28T13:06:20.999Z,16.55
2022-08-28T13:09:12.028Z,18.23
2022-08-28T13:12:01.995Z,21.30
2022-08-28T13:14:53.026Z,18.98
2022-08-28T13:18:10.012Z,30.50
2022-08-28T13:20:57.061Z,23.40
2022-08-28T13:23:37.003Z,18.50
2022-08-28T13:26:24.995Z,27.80
2022-08-28T13:29:21.898Z,27.65
2022-08-28T13:32:29.984Z,19.02
2022-08-28T13:35:40.017Z,23.73
2022-08-28T13:38:23.096Z,24.67
2022-08-28T13:41:12.026Z,20.92
2022-08-28T13:44:00.057Z,21.02
2022-08-28T13:46:40.384Z,18.85
2022-08-28T13:49:27.005Z,21.05
2022-08-28T13:52:14.993Z,17.33
2022-08-28T13:54:55.486Z,19.20
2022-08-28T13:57:41.955Z,17.83
2022-08-28T14:00:23.111Z,17.23
2022-08-28T14:03:28.979Z,19.25
2022-08-28T14:06:31.873Z,23.58
2022-08-28T14:09:15.278Z,19.58
2022-08-28T14:12:04.981Z,18.70
2022-08-28T14:14:51.967Z,23.05
2022-08-28T14:17:32.055Z,27.50
2022-08-28T14:20:20.957Z,20.15
2022-08-28T14:23:08.002Z,22.88
2022-08-28T14:26:04.997Z,19.33
2022-08-28T14:28:51.976Z,20.40
2022-08-28T14:31:36.018Z,17.00
2022-08-28T14:34:28.943Z,20.30
2022-08-28T14:37:09.041Z,23.58
2022-08-28T14:39:56.981Z,14.52
2022-08-28T14:42:37.053Z,22.42
2022-08-28T14:45:23.929Z,17.45
2022-08-28T14:48:04.000Z,19.58
2022-08-28T14:50:54.938Z,23.50
2022-08-28T14:53:41.925Z,21.83
2022-08-28T14:56:29.223Z,21.77
2022-08-28T14:59:18.427Z,16.02
2022-08-28T15:02:02.218Z,24.10
2022-08-28T15:04:48.924Z,21.80
2022-08-28T15:07:35.922Z,22.90
2022-08-28T15:10:17.199Z,20.48
2022-08-28T15:28:38.032Z,20.00
2022-08-28T15:31:25.171Z,21.80
2022-08-28T15:34:16.052Z,21.33
2022-08-28T15:36:58.350Z,25.10
2022-08-28T15:40:04.159Z,26.10
2022-08-28T15:42:45.455Z,22.17
2022-08-28T15:45:33.101Z,21.65
2022-08-28T15:48:13.518Z,20.70
2022-08-28T15:51:00.108Z,25.70
2022-08-28T15:53:40.431Z,24.23
2022-08-28T15:56:28.037Z,21.08
2022-08-28T15:59:10.707Z,27.90
2022-08-28T16:01:58.121Z,19.30
2022-08-28T16:04:38.504Z,19.90
2022-08-28T16:07:25.045Z,27.75
2022-08-28T16:10:17.707Z,25.58
2022-08-28T16:12:57.666Z,25.25
2022-08-28T16:15:45.007Z,21.63
2022-08-28T16:18:25.121Z,29.98
2022-08-28T16:21:11.980Z,22.90
2022-08-28T16:23:59.055Z,22.50
2022-08-28T16:26:52.972Z,22.25
2022-08-28T16:29:40.008Z,22.23
2022-08-28T16:32:20.061Z,29.38
2022-08-28T16:35:09.979Z,20.83
2022-08-28T16:37:56.989Z,25.42
2022-08-28T16:40:44.095Z,27.17
2022-08-28T16:43:23.999Z,28.02
2022-08-28T16:46:09.545Z,25.77
2022-08-28T16:48:56.972Z,23.92
2022-08-28T16:51:44.949Z,25.02
2022-08-28T16:54:32.953Z,24.75
2022-08-28T16:57:13.350Z,26.13
2022-08-28T17:00:00.941Z,29.45
2022-08-28T17:02:42.606Z,20.77
2022-08-28T17:05:31.942Z,26.88
2022-08-28T17:08:18.962Z,24.17
2022-08-28T17:11:05.935Z,22.88
2022-08-28T17:13:48.648Z,29.05
2022-08-28T17:16:40.944Z,25.97
2022-08-28T17:19:23.290Z,22.48
2022-08-28T17:22:27.916Z,29.40
2022-08-28T17:25:13.714Z,18.88
2022-08-28T17:28:00.934Z,23.63
2022-08-28T17:30:41.384Z,23.92
2022-08-28T17:33:27.902Z,26.63
2022-08-28T17:36:15.305Z,27.48
2022-08-28T17:39:13.904Z,28.75
2022-08-28T17:41:54.391Z,50.08
2022-08-28T17:44:41.920Z,27.92
2022-08-28T17:47:27.457Z,25.70
2022-08-28T17:53:06.065Z,24.98
2022-08-28T17:55:45.922Z,22.67
2022-08-28T17:58:26.367Z,24.98
2022-08-28T18:01:12.967Z,20.88
2022-08-28T18:04:01.928Z,32.90
2022-08-28T18:06:42.073Z,28.52
2022-08-28T18:09:29.891Z,20.77
2022-08-28T18:12:12.452Z,28.02
2022-08-28T18:14:59.892Z,26.92
2022-08-28T18:17:40.154Z,32.63
2022-08-28T18:20:27.104Z,32.55
2022-08-28T18:23:07.163Z,32.40
2022-08-28T18:25:55.029Z,29.58
2022-08-28T18:28:42.267Z,29.38
2022-08-28T18:31:22.063Z,28.05
2022-08-28T18:34:02.568Z,20.85
2022-08-28T18:36:49.078Z,32.22
2022-08-28T18:39:30.122Z,26.17
2022-08-28T18:42:17.048Z,27.83
2022-08-28T18:44:57.489Z,20.50
2022-08-28T18:47:44.090Z,29.98
2022-08-28T18:50:27.044Z,25.00
2022-08-28T18:53:14.069Z,24.03
2022-08-28T18:55:55.309Z,23.27
2022-08-28T18:58:42.953Z,21.52
2022-08-28T19:01:23.394Z,28.27
2022-08-28T19:04:09.818Z,22.73
2022-08-28T19:06:50.311Z,27.67
2022-08-28T19:09:36.832Z,19.63
2022-08-28T19:12:23.961Z,23.30
2022-08-28T19:15:04.815Z,30.25
2022-08-28T19:17:45.664Z,20.58
2022-08-28T19:20:39.847Z,24.80
2022-08-28T19:23:20.317Z,25.92
2022-08-28T19:26:06.854Z,26.42
2022-08-28T19:29:00.832Z,23.95
2022-08-28T19:31:43.813Z,20.25
2022-08-28T19:34:31.842Z,22.93
2022-08-28T19:37:12.209Z,27.50
2022-08-28T19:39:58.862Z,28.88
2022-08-28T19:42:45.769Z,24.25
2022-08-28T19:45:32.834Z,25.40
2022-08-28T19:48:13.429Z,25.98
2022-08-28T19:51:01.017Z,21.35
2022-08-28T19:53:41.350Z,24.17
2022-08-28T19:56:31.878Z,24.20
2022-08-28T19:59:18.899Z,28.15
2022-08-28T20:01:58.888Z,23.17
2022-08-28T20:04:45.820Z,23.48
2022-08-28T20:07:26.004Z,21.90
2022-08-28T20:10:13.811Z,26.20
2022-08-28T20:13:00.822Z,24.63
2022-08-28T20:15:45.938Z,26.08
2022-08-28T20:18:33.764Z,20.73
2022-08-28T20:21:14.475Z,17.40
2022-08-28T20:24:01.796Z,22.40
2022-08-28T20:26:56.724Z,31.25
2022-08-28T20:29:43.796Z,20.00
2022-08-28T20:32:23.890Z,17.13
2022-08-28T20:35:13.729Z,20.15
2022-08-28T20:38:00.735Z,21.60
2022-08-28T20:40:47.814Z,24.50
2022-08-28T20:43:28.710Z,26.02
2022-08-28T20:46:16.756Z,22.20
2022-08-28T20:48:56.820Z,27.17
2022-08-28T20:52:02.764Z,19.33
2022-08-28T20:54:46.078Z,24.42
2022-08-28T20:57:34.752Z,14.52
2022-08-28T21:00:16.841Z,24.95
2022-08-28T21:03:03.720Z,24.58
2022-08-28T21:05:50.713Z,20.38
2022-08-28T21:08:37.939Z,17.30
2022-08-28T21:11:17.745Z,20.35
2022-08-28T21:14:04.728Z,15.88
2022-08-28T21:16:52.748Z,20.63
2022-08-28T21:19:36.194Z,20.17
2022-08-28T21:22:26.726Z,28.65
2022-08-28T21:25:10.306Z,25.05
2022-08-28T21:27:57.680Z,15.53
2022-08-28T21:30:41.622Z,20.70
2022-08-28T21:33:28.685Z,18.63
2022-08-28T21:36:17.707Z,22.67
2022-08-28T21:38:58.411Z,20.23
2022-08-28T21:41:45.715Z,18.25
2022-08-28T21:44:25.781Z,20.92
2022-08-28T21:47:12.732Z,15.85
2022-08-28T21:49:54.801Z,32.00
2022-08-28T21:52:42.639Z,21.13
2022-08-28T21:55:29.702Z,21.65
2022-08-28T21:58:16.697Z,19.75
2022-08-28T22:00:59.810Z,21.17
2022-08-28T22:03:50.679Z,22.35
2022-08-28T22:06:31.962Z,24.15
2022-08-28T22:09:18.663Z,17.50
2022-08-28T22:11:58.749Z,18.25
2022-08-28T22:14:45.658Z,21.55
2022-08-28T22:17:26.218Z,16.42
2022-08-28T22:20:12.684Z,20.40
2022-08-28T22:23:13.817Z,23.10
2022-08-28T22:26:00.646Z,14.98
2022-08-28T22:28:47.721Z,18.70
2022-08-28T22:31:27.659Z,20.98
2022-08-28T22:34:09.015Z,18.27
2022-08-28T22:36:55.643Z,13.23
2022-08-28T22:39:42.783Z,10.77
2022-08-28T22:42:22.631Z,14.35
2022-08-28T22:45:03.150Z,15.15
2022-08-28T22:47:49.663Z,14.15
2022-08-28T22:50:30.070Z,17.27
2022-08-28T22:53:16.615Z,15.15
2022-08-28T22:55:57.447Z,17.30
2022-08-28T22:58:46.596Z,17.40
2022-08-28T23:01:33.702Z,17.15
2022-08-28T23:04:13.692Z,13.90
2022-08-28T23:06:54.063Z,13.57
2022-08-28T23:09:40.600Z,19.05
2022-08-28T23:12:21.091Z,15.38
2022-08-28T23:15:07.568Z,19.92
2022-08-28T23:17:48.817Z,18.90
2022-08-28T23:20:35.581Z,18.08
2022-08-28T23:23:16.145Z,15.05
2022-08-28T23:26:02.610Z,17.55
2022-08-28T23:28:43.358Z,17.38
2022-08-28T23:31:30.553Z,19.75
2022-08-28T23:34:18.584Z,14.13
2022-08-28T23:37:05.534Z,18.50
2022-08-28T23:39:46.008Z,15.93
2022-08-28T23:42:34.572Z,15.52
2022-08-28T23:45:23.562Z,20.50
2022-08-28T23:48:03.712Z,17.17
2022-08-28T23:50:51.535Z,15.45
2022-08-28T23:53:31.687Z,19.38
2022-08-28T23:59:12.028Z,13.98
